createdAt,value
2018-12-06T00:01:20.835Z,100689.81
2018-12-06T00:03:48.242Z,100682.58
2018-12-06T00:06:15.642Z,100678.00
2018-12-06T00:08:43.154Z,100687.08
2018-12-06T00:11:10.551Z,100679.36
2018-12-06T00:13:38.023Z,100680.27
2018-12-06T00:16:05.423Z,100669.39
2018-12-06T00:18:32.897Z,100669.17
2018-12-06T00:21:00.542Z,100664.17
2018-12-06T00:23:27.928Z,100650.70
2018-12-06T00:25:55.327Z,100655.44
2018-12-06T00:28:22.811Z,100650.94
2018-12-06T00:30:50.199Z,100653.05
2018-12-06T00:33:17.591Z,100641.94
2018-12-06T00:35:44.974Z,100640.55
2018-12-06T00:38:12.377Z,100629.67
2018-12-06T00:40:39.760Z,100629.51
2018-12-06T00:43:07.219Z,100626.79
2018-12-06T00:45:34.598Z,100621.14
2018-12-06T00:48:02.067Z,100616.59
2018-12-06T00:50:29.532Z,100618.64
2018-12-06T00:52:57.077Z,100620.98
2018-12-06T00:55:24.458Z,100621.44
2018-12-06T00:57:51.859Z,100626.05
2018-12-06T01:00:19.245Z,100623.39
2018-12-06T01:02:46.783Z,100611.67
2018-12-06T01:05:14.254Z,100610.80
2018-12-06T01:07:41.711Z,100614.11
2018-12-06T01:10:09.123Z,100611.59
2018-12-06T01:12:36.936Z,100616.42
2018-12-06T01:15:05.216Z,100615.06
2018-12-06T01:17:32.670Z,100617.30
2018-12-06T01:20:00.121Z,100626.40
2018-12-06T01:22:27.518Z,100618.89
2018-12-06T01:24:54.901Z,100623.37
2018-12-06T01:27:22.386Z,100614.67
2018-12-06T01:29:49.780Z,100615.70
2018-12-06T01:32:17.202Z,100607.13
2018-12-06T01:34:44.586Z,100604.80
2018-12-06T01:37:11.983Z,100601.93
2018-12-06T01:39:39.457Z,100592.69
2018-12-06T01:42:06.923Z,100589.66
2018-12-06T01:44:34.315Z,100585.86
2018-12-06T01:47:01.738Z,100586.88
2018-12-06T01:49:29.197Z,100582.02
2018-12-06T01:51:56.646Z,100579.61
2018-12-06T01:54:24.043Z,100579.15
2018-12-06T01:56:51.462Z,100571.34
2018-12-06T01:59:18.857Z,100561.73
2018-12-06T02:01:46.372Z,100551.34
2018-12-06T02:04:13.771Z,100557.20
2018-12-06T02:06:41.162Z,100551.69
2018-12-06T02:09:10.062Z,100549.07
2018-12-06T02:11:38.058Z,100551.39
2018-12-06T02:14:05.507Z,100543.25
2018-12-06T02:16:33.264Z,100539.66
2018-12-06T02:19:00.650Z,100539.78
2018-12-06T02:21:28.039Z,100533.45
2018-12-06T02:23:55.582Z,100545.86
2018-12-06T02:26:22.962Z,100544.47
2018-12-06T02:28:50.450Z,100540.08
2018-12-06T02:31:17.903Z,100534.12
2018-12-06T02:33:45.367Z,100533.71
2018-12-06T02:36:12.826Z,100522.45
2018-12-06T02:38:40.390Z,100517.33
2018-12-06T02:41:07.811Z,100523.09
2018-12-06T02:43:35.296Z,100513.34
2018-12-06T02:46:02.687Z,100507.03
2018-12-06T02:48:30.215Z,100506.55
2018-12-06T02:50:57.668Z,100506.62
2018-12-06T02:53:25.057Z,100498.03
2018-12-06T02:55:52.579Z,100499.62
2018-12-06T02:58:19.966Z,100498.78
2018-12-06T03:00:47.371Z,100498.78
2018-12-06T03:03:14.847Z,100494.66
2018-12-06T03:05:42.327Z,100493.68
2018-12-06T03:08:09.720Z,100489.50
2018-12-06T03:10:37.314Z,100479.10
2018-12-06T03:13:04.786Z,100469.83
2018-12-06T03:15:32.170Z,100467.78
2018-12-06T03:17:59.587Z,100460.77
2018-12-06T03:20:27.042Z,100456.33
2018-12-06T03:22:54.520Z,100454.83
2018-12-06T03:25:22.015Z,100448.66
2018-12-06T03:27:49.475Z,100448.93
2018-12-06T03:30:16.885Z,100448.74
2018-12-06T03:32:44.356Z,100448.09
2018-12-06T03:35:11.888Z,100440.80
2018-12-06T03:37:39.279Z,100444.42
2018-12-06T03:40:06.809Z,100440.09
2018-12-06T03:42:34.213Z,100447.16
2018-12-06T03:45:01.674Z,100437.76
2018-12-06T03:47:29.174Z,100437.66
2018-12-06T03:49:56.563Z,100431.66
2018-12-06T03:52:23.954Z,100443.20
2018-12-06T03:54:51.439Z,100450.02
2018-12-06T03:57:18.839Z,100465.88
2018-12-06T03:59:46.251Z,100471.82
2018-12-06T04:02:13.653Z,100469.39
2018-12-06T04:04:41.159Z,100468.08
2018-12-06T04:07:08.559Z,100460.59
2018-12-06T04:09:35.951Z,100454.34
2018-12-06T04:12:03.456Z,100470.23
2018-12-06T04:14:30.995Z,100472.72
2018-12-06T04:16:58.539Z,100476.44
2018-12-06T04:19:26.015Z,100478.42
2018-12-06T04:21:53.412Z,100473.38
2018-12-06T04:24:20.875Z,100469.83
2018-12-06T04:26:48.269Z,100470.06
2018-12-06T04:29:15.735Z,100465.41
2018-12-06T04:31:43.147Z,100468.52
2018-12-06T04:34:10.647Z,100461.32
2018-12-06T04:36:38.118Z,100462.38
2018-12-06T04:39:06.080Z,100459.17
2018-12-06T04:41:33.531Z,100461.48
2018-12-06T04:44:00.990Z,100462.90
2018-12-06T04:46:28.451Z,100462.26
2018-12-06T04:48:56.002Z,100467.73
2018-12-06T04:51:23.468Z,100467.91
2018-12-06T04:53:50.867Z,100460.28
2018-12-06T04:56:18.254Z,100466.42
2018-12-06T04:58:45.730Z,100474.37
2018-12-06T05:01:13.196Z,100467.50
2018-12-06T05:03:40.663Z,100471.17
2018-12-06T05:06:08.098Z,100461.00
2018-12-06T05:08:35.519Z,100457.28
2018-12-06T05:11:03.047Z,100454.30
2018-12-06T05:13:30.570Z,100452.97
2018-12-06T05:15:58.036Z,100464.56
2018-12-06T05:18:25.487Z,100461.77
2018-12-06T05:20:53.050Z,100454.95
2018-12-06T05:23:20.435Z,100444.31
2018-12-06T05:25:47.844Z,100441.20
2018-12-06T05:28:15.230Z,100437.35
2018-12-06T05:30:42.671Z,100433.72
2018-12-06T05:33:10.081Z,100430.19
2018-12-06T05:35:37.551Z,100433.69
2018-12-06T05:38:05.037Z,100438.31
2018-12-06T05:40:32.504Z,100432.46
2018-12-06T05:42:59.886Z,100434.67
2018-12-06T05:45:27.280Z,100436.54
2018-12-06T05:47:54.754Z,100439.48
2018-12-06T05:50:22.214Z,100439.89
2018-12-06T05:52:49.685Z,100440.27
2018-12-06T05:55:17.148Z,100438.58
2018-12-06T05:57:44.595Z,100443.12
2018-12-06T06:00:11.991Z,100439.29
2018-12-06T06:02:39.398Z,100434.31
2018-12-06T06:05:07.090Z,100434.72
2018-12-06T06:07:34.484Z,100444.44
2018-12-06T06:10:01.991Z,100447.00
2018-12-06T06:12:29.438Z,100447.48
2018-12-06T06:14:56.889Z,100450.37
2018-12-06T06:17:24.266Z,100454.83
2018-12-06T06:19:51.668Z,100454.00
2018-12-06T06:22:19.057Z,100451.00
2018-12-06T06:24:46.526Z,100451.58
2018-12-06T06:27:13.915Z,100446.17
2018-12-06T06:29:41.322Z,100438.16
2018-12-06T06:32:08.711Z,100425.45
2018-12-06T06:34:36.107Z,100419.42
2018-12-06T06:37:03.503Z,100418.10
2018-12-06T06:39:30.905Z,100415.38
2018-12-06T06:41:58.466Z,100421.20
2018-12-06T06:44:25.866Z,100428.28
2018-12-06T06:46:53.481Z,100427.08
2018-12-06T06:49:20.984Z,100424.25
2018-12-06T06:51:48.377Z,100427.44
2018-12-06T06:54:15.795Z,100438.67
2018-12-06T06:56:43.214Z,100448.69
2018-12-06T06:59:10.718Z,100442.82
2018-12-06T07:01:38.218Z,100452.63
2018-12-06T07:04:05.676Z,100465.70
2018-12-06T07:06:33.178Z,100477.45
2018-12-06T07:09:00.570Z,100472.11
2018-12-06T07:11:27.987Z,100472.70
2018-12-06T07:13:55.594Z,100484.67
2018-12-06T07:16:23.102Z,100490.32
2018-12-06T07:18:50.561Z,100500.91
2018-12-06T07:21:18.014Z,100508.88
2018-12-06T07:23:45.411Z,100506.03
2018-12-06T07:26:12.807Z,100505.39
2018-12-06T07:28:40.199Z,100500.84
2018-12-06T07:31:07.626Z,100511.27
2018-12-06T07:33:35.203Z,100517.98
2018-12-06T07:36:02.658Z,100515.67
2018-12-06T07:38:30.119Z,100517.30
2018-12-06T07:40:57.515Z,100517.37
2018-12-06T07:43:24.987Z,100524.45
2018-12-06T07:45:54.287Z,100517.98
2018-12-06T07:48:21.676Z,100527.55
2018-12-06T07:50:49.151Z,100529.36
2018-12-06T07:53:16.598Z,100536.98
2018-12-06T07:55:43.995Z,100538.77
2018-12-06T07:58:11.379Z,100536.96
2018-12-06T08:00:38.775Z,100539.28
2018-12-06T08:03:06.171Z,100543.13
2018-12-06T08:05:33.574Z,100539.55
2018-12-06T08:08:01.043Z,100546.30
2018-12-06T08:10:28.439Z,100544.24
2018-12-06T08:12:55.826Z,100537.50
2018-12-06T08:15:23.333Z,100540.20
2018-12-06T08:17:50.810Z,100522.50
2018-12-06T08:20:18.234Z,100517.73
2018-12-06T08:22:45.675Z,100520.67
2018-12-06T08:25:13.134Z,100522.48
2018-12-06T08:27:40.592Z,100521.55
2018-12-06T08:30:07.992Z,100529.98
2018-12-06T08:32:35.383Z,100537.86
2018-12-06T08:35:02.863Z,100539.54
2018-12-06T08:37:30.319Z,100539.76
2018-12-06T08:39:57.710Z,100538.34
2018-12-06T08:42:25.098Z,100546.20
2018-12-06T08:44:52.502Z,100550.41
2018-12-06T08:47:19.937Z,100549.64
2018-12-06T08:49:47.491Z,100545.16
2018-12-06T08:52:14.874Z,100534.59
2018-12-06T08:54:42.411Z,100541.36
2018-12-06T08:57:09.807Z,100538.56
2018-12-06T08:59:37.196Z,100531.61
2018-12-06T09:02:04.591Z,100537.84
2018-12-06T09:04:32.031Z,100535.98
2018-12-06T09:06:59.430Z,100524.98
2018-12-06T09:09:26.819Z,100525.86
2018-12-06T09:11:54.298Z,100529.63
2018-12-06T09:14:21.755Z,100529.69
2018-12-06T09:16:49.210Z,100518.45
2018-12-06T09:19:16.671Z,100520.07
2018-12-06T09:21:44.127Z,100502.31
2018-12-06T09:24:11.587Z,100499.01
2018-12-06T09:26:38.988Z,100490.56
2018-12-06T09:29:06.459Z,100482.56
2018-12-06T09:31:33.849Z,100468.86
2018-12-06T09:34:04.518Z,100467.84
2018-12-06T09:36:31.914Z,100456.78
2018-12-06T09:38:59.404Z,100454.13
2018-12-06T09:41:26.850Z,100460.81
2018-12-06T09:43:54.307Z,100456.93
2018-12-06T09:46:21.707Z,100468.49
2018-12-06T09:48:49.127Z,100467.58
2018-12-06T09:51:16.587Z,100467.92
2018-12-06T09:53:44.041Z,100473.38
2018-12-06T09:56:11.422Z,100460.59
2018-12-06T09:58:38.855Z,100457.39
2018-12-06T10:01:06.275Z,100458.70
2018-12-06T10:03:33.646Z,100463.50
2018-12-06T10:06:01.066Z,100468.84
2018-12-06T10:08:28.471Z,100464.36
2018-12-06T10:10:55.858Z,100466.09
2018-12-06T10:13:23.258Z,100473.71
2018-12-06T10:15:50.727Z,100483.61
2018-12-06T10:18:18.142Z,100481.07
2018-12-06T10:20:45.536Z,100485.05
2018-12-06T10:23:13.006Z,100481.30
2018-12-06T10:25:40.463Z,100492.70
2018-12-06T10:28:07.919Z,100494.79
2018-12-06T10:30:35.382Z,100493.09
2018-12-06T10:33:02.838Z,100492.06
2018-12-06T10:35:30.317Z,100488.47
2018-12-06T10:37:57.758Z,100496.30
2018-12-06T10:40:25.207Z,100497.23
2018-12-06T10:42:52.605Z,100491.02
2018-12-06T10:45:20.024Z,100494.50
2018-12-06T10:47:47.588Z,100491.77
2018-12-06T10:50:14.986Z,100487.98
2018-12-06T10:52:42.391Z,100480.38
2018-12-06T10:55:09.779Z,100471.39
2018-12-06T10:57:37.175Z,100465.30
2018-12-06T11:00:06.652Z,100459.83
2018-12-06T11:02:51.970Z,100463.67
2018-12-06T11:05:19.379Z,100460.84
2018-12-06T11:07:46.774Z,100465.56
2018-12-06T11:10:14.256Z,100457.84
2018-12-06T11:12:41.718Z,100461.88
2018-12-06T11:15:09.163Z,100471.03
2018-12-06T11:18:02.534Z,100471.27
2018-12-06T11:20:30.003Z,100466.19
2018-12-06T11:22:57.497Z,100459.04
2018-12-06T11:25:25.015Z,100459.72
2018-12-06T11:27:52.407Z,100457.28
2018-12-06T11:30:19.914Z,100453.88
2018-12-06T11:32:47.311Z,100441.05
2018-12-06T11:35:14.710Z,100443.33
2018-12-06T11:37:42.187Z,100435.88
2018-12-06T11:40:09.642Z,100443.48
2018-12-06T11:42:37.101Z,100449.52
2018-12-06T11:45:05.891Z,100450.35
2018-12-06T11:47:33.283Z,100454.42
2018-12-06T11:50:00.698Z,100459.99
2018-12-06T11:52:28.090Z,100457.06
2018-12-06T11:54:55.519Z,100456.67
2018-12-06T11:57:22.914Z,100454.88
2018-12-06T11:59:50.299Z,100451.03
2018-12-06T12:02:17.779Z,100447.00
2018-12-06T12:04:45.178Z,100442.00
2018-12-06T12:07:12.934Z,100435.48
2018-12-06T12:09:40.355Z,100454.42
2018-12-06T12:12:07.815Z,100475.98
2018-12-06T12:14:35.371Z,100471.52
2018-12-06T12:17:02.829Z,100455.32
2018-12-06T12:19:30.292Z,100469.30
2018-12-06T12:21:57.745Z,100463.89
2018-12-06T12:24:25.306Z,100457.31
2018-12-06T12:26:52.711Z,100458.55
2018-12-06T12:29:20.174Z,100452.42
2018-12-06T12:31:47.566Z,100453.91
2018-12-06T12:34:15.032Z,100457.69
2018-12-06T12:36:42.488Z,100454.48
2018-12-06T12:39:09.942Z,100464.52
2018-12-06T12:41:37.399Z,100468.52
2018-12-06T12:44:04.858Z,100465.34
2018-12-06T12:46:32.299Z,100466.28
2018-12-06T12:48:59.694Z,100468.73
2018-12-06T12:51:27.111Z,100469.73
2018-12-06T12:53:54.587Z,100476.61
2018-12-06T12:56:22.047Z,100480.03
2018-12-06T12:58:49.446Z,100490.03
2018-12-06T13:01:16.860Z,100492.78
2018-12-06T13:03:44.305Z,100487.30
2018-12-06T13:06:11.707Z,100486.89
2018-12-06T13:08:39.117Z,100476.13
2018-12-06T13:11:06.579Z,100482.48
2018-12-06T13:13:33.974Z,100474.84
2018-12-06T13:16:01.410Z,100478.56
2018-12-06T13:18:28.830Z,100473.97
2018-12-06T13:20:56.302Z,100477.78
2018-12-06T13:23:23.762Z,100468.98
2018-12-06T13:25:51.218Z,100474.97
2018-12-06T13:28:18.680Z,100468.63
2018-12-06T13:30:46.078Z,100469.77
2018-12-06T13:33:13.475Z,100465.86
2018-12-06T13:35:40.967Z,100467.60
2018-12-06T13:38:08.408Z,100461.35
2018-12-06T13:40:35.807Z,100457.56
2018-12-06T13:43:03.320Z,100451.94
2018-12-06T13:45:30.729Z,100443.25
2018-12-06T13:47:58.230Z,100434.88
2018-12-06T13:50:25.634Z,100442.22
2018-12-06T13:52:53.043Z,100451.26
2018-12-06T13:55:20.444Z,100453.40
2018-12-06T13:57:47.911Z,100436.79
2018-12-06T14:00:15.394Z,100441.69
2018-12-06T14:02:42.867Z,100448.33
2018-12-06T14:05:10.346Z,100451.30
2018-12-06T14:07:37.745Z,100454.72
2018-12-06T14:10:05.156Z,100451.83
2018-12-06T14:12:32.701Z,100448.65
2018-12-06T14:15:00.276Z,100448.65
2018-12-06T14:17:27.821Z,100449.88
2018-12-06T14:19:55.222Z,100430.68
2018-12-06T14:22:22.616Z,100434.69
2018-12-06T14:24:50.081Z,100428.53
2018-12-06T14:27:17.484Z,100431.97
2018-12-06T14:29:44.962Z,100430.96
2018-12-06T14:32:12.354Z,100431.44
2018-12-06T14:34:39.758Z,100440.60
2018-12-06T14:37:07.269Z,100436.73
2018-12-06T14:39:34.658Z,100448.76
2018-12-06T14:42:02.086Z,100446.03
2018-12-06T14:44:29.539Z,100459.52
2018-12-06T14:46:56.993Z,100452.82
2018-12-06T14:49:24.387Z,100453.62
2018-12-06T14:51:51.907Z,100456.41
2018-12-06T14:54:19.298Z,100435.27
2018-12-06T14:56:46.718Z,100437.16
2018-12-06T14:59:14.184Z,100439.77
2018-12-06T15:01:41.647Z,100435.89
2018-12-06T15:04:09.100Z,100445.99
2018-12-06T15:06:37.673Z,100454.49
2018-12-06T15:09:07.098Z,100448.69
2018-12-06T15:11:34.638Z,100450.39
2018-12-06T15:14:02.094Z,100454.94
2018-12-06T15:16:29.555Z,100455.20
2018-12-06T15:18:56.947Z,100444.58
2018-12-06T15:21:24.471Z,100445.62
2018-12-06T15:23:51.863Z,100441.44
2018-12-06T15:26:19.270Z,100442.53
2018-12-06T15:28:46.666Z,100453.02
2018-12-06T15:31:14.094Z,100451.71
2018-12-06T15:33:41.548Z,100457.09
2018-12-06T15:36:08.943Z,100450.34
2018-12-06T15:38:36.354Z,100452.12
2018-12-06T15:41:03.747Z,100450.26
2018-12-06T15:43:31.154Z,100450.13
2018-12-06T15:45:58.631Z,100458.72
2018-12-06T15:48:26.082Z,100467.27
2018-12-06T15:50:53.551Z,100467.20
2018-12-06T15:53:20.938Z,100464.56
2018-12-06T15:55:48.354Z,100458.37
2018-12-06T15:58:15.810Z,100462.69
2018-12-06T16:00:43.207Z,100460.66
2018-12-06T16:03:10.619Z,100458.92
2018-12-06T16:05:38.015Z,100457.03
2018-12-06T16:08:06.222Z,100450.64
2018-12-06T16:10:33.683Z,100450.64
2018-12-06T16:13:01.155Z,100449.99
2018-12-06T16:15:28.619Z,100442.32
2018-12-06T16:17:56.106Z,100451.30
2018-12-06T16:20:23.539Z,100441.23
2018-12-06T16:22:50.935Z,100440.47
2018-12-06T16:25:18.323Z,100444.37
2018-12-06T16:27:45.806Z,100444.27
2018-12-06T16:30:13.259Z,100442.50
2018-12-06T16:32:40.713Z,100438.27
2018-12-06T16:35:08.119Z,100431.20
2018-12-06T16:37:35.540Z,100430.20
2018-12-06T16:40:03.915Z,100432.26
2018-12-06T16:42:31.316Z,100426.55
2018-12-06T16:44:58.714Z,100433.23
2018-12-06T16:47:26.111Z,100430.74
2018-12-06T16:49:53.611Z,100440.33
2018-12-06T16:52:21.094Z,100442.53
2018-12-06T16:54:48.494Z,100440.14
2018-12-06T16:57:16.011Z,100442.80
2018-12-06T16:59:43.467Z,100439.78
2018-12-06T17:02:10.870Z,100441.63
2018-12-06T17:04:38.271Z,100443.83
2018-12-06T17:07:05.666Z,100440.56
2018-12-06T17:09:33.075Z,100439.41
2018-12-06T17:12:00.547Z,100441.15
2018-12-06T17:14:27.949Z,100442.86
2018-12-06T17:16:55.460Z,100439.98
2018-12-06T17:19:22.853Z,100440.02
2018-12-06T17:21:50.281Z,100444.54
2018-12-06T17:24:17.754Z,100434.39
2018-12-06T17:26:45.232Z,100433.14
2018-12-06T17:29:12.647Z,100440.24
2018-12-06T17:31:40.201Z,100442.89
2018-12-06T17:34:07.663Z,100443.44
2018-12-06T17:36:35.055Z,100451.73
2018-12-06T17:39:02.758Z,100443.38
2018-12-06T17:41:30.236Z,100441.56
2018-12-06T17:43:57.690Z,100444.57
2018-12-06T17:46:25.151Z,100445.21
2018-12-06T17:48:52.615Z,100449.61
2018-12-06T17:51:20.071Z,100440.53
2018-12-06T17:53:52.187Z,100439.20
2018-12-06T17:56:16.842Z,100436.76
2018-12-06T17:58:44.278Z,100443.25
2018-12-06T18:01:11.674Z,100437.11
2018-12-06T18:03:39.082Z,100440.31
2018-12-06T18:06:06.474Z,100436.66
2018-12-06T18:08:33.908Z,100431.81
2018-12-06T18:11:01.411Z,100423.36
2018-12-06T18:13:28.823Z,100418.22
2018-12-06T18:15:56.230Z,100418.97
2018-12-06T18:18:23.733Z,100423.08
2018-12-06T18:20:51.209Z,100430.30
2018-12-06T18:23:18.611Z,100429.75
2018-12-06T18:25:46.024Z,100444.27
2018-12-06T18:28:13.486Z,100445.86
2018-12-06T18:30:40.925Z,100451.05
2018-12-06T18:33:08.323Z,100449.27
2018-12-06T18:35:35.726Z,100447.44
2018-12-06T18:38:03.126Z,100439.39
2018-12-06T18:40:30.616Z,100437.92
2018-12-06T18:42:58.007Z,100429.91
2018-12-06T18:45:25.411Z,100425.45
2018-12-06T18:47:52.844Z,100421.57
2018-12-06T18:50:20.324Z,100422.99
2018-12-06T18:52:47.800Z,100431.75
2018-12-06T18:55:15.268Z,100428.19
2018-12-06T18:57:42.743Z,100418.06
2018-12-06T19:00:10.354Z,100414.19
2018-12-06T19:02:37.742Z,100412.25
2018-12-06T19:05:05.347Z,100406.05
2018-12-06T19:07:32.726Z,100407.15
2018-12-06T19:10:00.147Z,100393.91
2018-12-06T19:12:27.686Z,100392.09
2018-12-06T19:14:55.095Z,100392.66
2018-12-06T19:17:22.500Z,100405.09
2018-12-06T19:19:50.874Z,100395.61
2018-12-06T19:22:18.265Z,100395.77
2018-12-06T19:24:45.682Z,100390.30
2018-12-06T19:27:13.087Z,100384.09
2018-12-06T19:29:40.500Z,100392.59
2018-12-06T19:32:07.954Z,100380.00
2018-12-06T19:34:35.466Z,100379.16
2018-12-06T19:37:02.871Z,100374.23
2018-12-06T19:39:30.347Z,100373.16
2018-12-06T19:41:57.873Z,100370.32
2018-12-06T19:44:25.298Z,100364.58
2018-12-06T19:46:52.775Z,100370.29
2018-12-06T19:49:20.163Z,100365.03
2018-12-06T19:51:47.558Z,100371.70
2018-12-06T19:54:15.014Z,100370.77
2018-12-06T19:56:42.421Z,100358.25
2018-12-06T19:59:09.823Z,100356.34
2018-12-06T20:01:37.230Z,100350.95
2018-12-06T20:04:04.695Z,100354.63
2018-12-06T20:06:32.100Z,100344.02
2018-12-06T20:08:59.515Z,100335.20
2018-12-06T20:11:26.986Z,100334.05
2018-12-06T20:13:54.392Z,100326.40
2018-12-06T20:16:21.891Z,100325.56
2018-12-06T20:18:49.440Z,100321.33
2018-12-06T20:21:16.923Z,100319.40
2018-12-06T20:23:44.355Z,100315.02
2018-12-06T20:26:11.834Z,100317.49
2018-12-06T20:28:39.266Z,100323.33
2018-12-06T20:31:06.671Z,100311.48
2018-12-06T20:33:34.066Z,100311.33
2018-12-06T20:36:01.552Z,100304.64
2018-12-06T20:38:29.002Z,100298.81
2018-12-06T20:40:56.411Z,100294.21
2018-12-06T20:43:23.794Z,100291.45
2018-12-06T20:45:51.258Z,100287.64
2018-12-06T20:48:18.650Z,100286.30
2018-12-06T20:50:49.361Z,100277.84
2018-12-06T20:53:15.487Z,100277.53
2018-12-06T20:55:42.951Z,100284.00
2018-12-06T20:58:14.918Z,100275.66
2018-12-06T21:00:39.762Z,100273.19
2018-12-06T21:03:07.175Z,100285.86
2018-12-06T21:05:34.707Z,100288.99
2018-12-06T21:08:02.119Z,100286.11
2018-12-06T21:10:29.622Z,100283.29
2018-12-06T21:12:57.022Z,100280.45
2018-12-06T21:15:24.431Z,100284.54
2018-12-06T21:17:51.829Z,100276.50
2018-12-06T21:20:19.220Z,100279.58
2018-12-06T21:22:46.623Z,100275.14
2018-12-06T21:25:14.054Z,100268.75
2018-12-06T21:27:41.450Z,100258.34
2018-12-06T21:30:08.871Z,100257.86
2018-12-06T21:32:36.258Z,100258.52
2018-12-06T21:35:03.782Z,100257.33
2018-12-06T21:37:31.266Z,100248.60
2018-12-06T21:39:58.734Z,100244.04
2018-12-06T21:42:26.143Z,100238.62
2018-12-06T21:44:53.515Z,100239.98
2018-12-06T21:47:26.425Z,100231.16
2018-12-06T21:49:54.668Z,100238.31
2018-12-06T21:52:22.082Z,100235.67
2018-12-06T21:54:49.711Z,100236.64
2018-12-06T21:57:17.140Z,100232.25
2018-12-06T21:59:44.548Z,100224.25
2018-12-06T22:02:22.531Z,100230.11
2018-12-06T22:04:49.927Z,100233.10
2018-12-06T22:07:17.425Z,100224.08
2018-12-06T22:09:44.843Z,100227.58
2018-12-06T22:12:12.239Z,100226.48
2018-12-06T22:14:39.652Z,100227.30
2018-12-06T22:17:07.143Z,100225.40
2018-12-06T22:19:34.546Z,100223.34
2018-12-06T22:22:01.954Z,100220.69
2018-12-06T22:24:29.359Z,100224.81
2018-12-06T22:26:56.772Z,100227.54
2018-12-06T22:29:24.174Z,100222.41
2018-12-06T22:31:51.580Z,100221.04
2018-12-06T22:34:18.976Z,100216.16
2018-12-06T22:36:46.362Z,100220.52
2018-12-06T22:39:13.931Z,100218.52
2018-12-06T22:41:41.332Z,100206.61
2018-12-06T22:44:08.831Z,100211.70
2018-12-06T22:46:36.230Z,100218.91
2018-12-06T22:49:03.711Z,100212.30
2018-12-06T22:51:31.207Z,100216.62
2018-12-06T22:53:58.595Z,100218.43
2018-12-06T22:56:26.046Z,100214.59
2018-12-06T22:58:53.610Z,100218.67
2018-12-06T23:01:22.967Z,100216.45
2018-12-06T23:03:50.368Z,100222.48
2018-12-06T23:06:17.938Z,100224.05
2018-12-06T23:08:45.440Z,100221.31
2018-12-06T23:11:12.851Z,100220.33
2018-12-06T23:13:40.293Z,100222.16
2018-12-06T23:16:07.756Z,100218.19
2018-12-06T23:18:35.234Z,100220.48
2018-12-06T23:21:02.680Z,100210.39
2018-12-06T23:23:30.122Z,100213.92
2018-12-06T23:25:57.545Z,100215.39
2018-12-06T23:28:24.994Z,100215.36
2018-12-06T23:30:52.498Z,100210.53
2018-12-06T23:33:19.961Z,100207.01
2018-12-06T23:35:47.431Z,100196.08
2018-12-06T23:38:14.878Z,100195.83
2018-12-06T23:40:42.333Z,100205.57
2018-12-06T23:43:09.723Z,100207.98
2018-12-06T23:45:37.350Z,100204.89
2018-12-06T23:48:04.809Z,100201.52
2018-12-06T23:50:32.283Z,100195.23
2018-12-06T23:52:59.711Z,100202.73
2018-12-06T23:55:27.114Z,100194.89
2018-12-06T23:57:54.507Z,100191.16
